createdAt,value
2022-12-09T05:02:40.345Z,35.40
2022-12-09T05:05:07.701Z,35.25
2022-12-09T05:07:34.564Z,36.97
2022-12-09T05:10:01.801Z,36.80
2022-12-09T05:12:28.694Z,34.58
2022-12-09T05:14:55.788Z,36.45
2022-12-09T05:17:22.739Z,41.83
2022-12-09T05:19:49.684Z,36.85
2022-12-09T05:22:20.053Z,33.60
2022-12-09T05:24:49.782Z,34.97
2022-12-09T05:27:16.783Z,31.70
2022-12-09T05:29:43.747Z,29.88
2022-12-09T05:32:10.502Z,27.90
2022-12-09T05:34:37.439Z,27.90
2022-12-09T05:37:04.356Z,30.77
2022-12-09T05:39:31.047Z,27.63
2022-12-09T05:41:57.723Z,28.58
2022-12-09T05:44:24.512Z,32.72
2022-12-09T05:46:51.375Z,29.63
2022-12-09T05:49:18.522Z,33.38
2022-12-09T05:51:45.501Z,30.98
2022-12-09T05:54:12.200Z,33.90
2022-12-09T05:56:42.970Z,29.75
2022-12-09T05:59:14.466Z,30.50
2022-12-09T06:01:41.389Z,29.42
2022-12-09T06:04:08.330Z,35.35
2022-12-09T06:06:35.250Z,31.25
2022-12-09T06:09:02.743Z,34.45
2022-12-09T06:11:30.083Z,34.67
2022-12-09T06:13:57.077Z,31.83
2022-12-09T06:16:25.055Z,30.33
2022-12-09T06:18:51.929Z,31.92
2022-12-09T06:21:21.194Z,29.85
2022-12-09T06:23:50.586Z,29.93
2022-12-09T06:26:26.963Z,32.28
2022-12-09T06:28:54.895Z,30.77
2022-12-09T06:31:22.302Z,30.38
2022-12-09T06:33:58.528Z,28.45
2022-12-09T06:36:27.470Z,31.03
2022-12-09T06:38:56.675Z,30.92
2022-12-09T06:41:23.820Z,27.80
2022-12-09T06:43:50.817Z,28.75
2022-12-09T06:46:26.265Z,34.97
2022-12-09T06:48:55.013Z,33.00
2022-12-09T06:51:23.611Z,31.48
2022-12-09T06:53:50.783Z,33.90
2022-12-09T06:56:18.491Z,33.95
2022-12-09T06:58:46.591Z,32.90
2022-12-09T07:01:21.977Z,33.70
2022-12-09T07:03:52.201Z,38.78
2022-12-09T07:06:38.336Z,33.97
2022-12-09T07:09:09.035Z,32.67
2022-12-09T07:11:36.631Z,32.88
2022-12-09T07:14:04.399Z,34.03
2022-12-09T07:16:31.261Z,37.38
2022-12-09T07:18:58.336Z,34.72
2022-12-09T07:21:25.546Z,37.00
2022-12-09T07:23:52.610Z,33.95
2022-12-09T07:26:20.650Z,37.70
2022-12-09T07:28:50.160Z,38.05
2022-12-09T07:31:25.929Z,38.88
2022-12-09T07:33:54.657Z,36.72
2022-12-09T07:36:26.006Z,41.22
2022-12-09T07:38:57.186Z,38.93
2022-12-09T07:41:24.566Z,43.10
2022-12-09T07:43:51.753Z,43.15
2022-12-09T07:46:20.221Z,37.63
2022-12-09T07:48:49.077Z,41.35
2022-12-09T07:51:16.997Z,43.97
2022-12-09T07:53:43.872Z,48.70
2022-12-09T07:56:14.828Z,47.15
2022-12-09T07:58:43.104Z,45.53
2022-12-09T08:01:13.412Z,49.75
2022-12-09T08:03:42.508Z,53.07
2022-12-09T08:06:14.008Z,46.33
2022-12-09T08:08:41.085Z,50.45
2022-12-09T08:11:13.026Z,50.20
2022-12-09T08:13:42.412Z,53.92
2022-12-09T08:16:11.503Z,50.63
2022-12-09T08:18:39.042Z,55.90
2022-12-09T08:21:14.694Z,49.60
2022-12-09T08:23:41.330Z,54.70
2022-12-09T08:26:10.381Z,51.95
2022-12-09T08:28:37.896Z,48.03
2022-12-09T08:31:09.451Z,51.42
2022-12-09T08:33:37.300Z,49.20
2022-12-09T08:36:07.866Z,50.75
2022-12-09T08:38:34.612Z,50.85
2022-12-09T08:41:16.167Z,50.60
2022-12-09T08:43:43.645Z,47.55
2022-12-09T08:46:11.381Z,45.63
2022-12-09T08:48:42.625Z,46.58
2022-12-09T08:51:11.389Z,48.42
2022-12-09T08:53:38.437Z,45.17
2022-12-09T08:56:13.165Z,44.97
2022-12-09T08:58:41.133Z,45.17
2022-12-09T09:01:14.110Z,52.55
2022-12-09T09:03:40.856Z,46.85
2022-12-09T09:06:10.809Z,47.43
2022-12-09T09:08:39.431Z,45.35
2022-12-09T09:11:16.028Z,43.08
2022-12-09T09:13:44.490Z,44.50
2022-12-09T09:16:14.984Z,47.45
2022-12-09T09:18:42.714Z,49.67
2022-12-09T09:21:11.839Z,49.85
2022-12-09T09:23:38.780Z,49.85
2022-12-09T09:26:05.774Z,43.30
2022-12-09T09:28:32.705Z,49.15
2022-12-09T09:31:01.201Z,49.83
2022-12-09T09:33:29.022Z,59.38
2022-12-09T09:36:05.555Z,54.97
2022-12-09T09:38:35.363Z,54.63
2022-12-09T09:41:07.601Z,52.97
2022-12-09T09:43:38.317Z,54.87
2022-12-09T09:46:06.211Z,49.97
2022-12-09T09:48:36.005Z,51.45
2022-12-09T09:51:07.258Z,50.38
2022-12-09T09:53:35.624Z,51.33
2022-12-09T09:56:31.468Z,46.57
2022-12-09T09:59:17.683Z,51.22
2022-12-09T10:01:55.194Z,60.03
2022-12-09T10:04:34.462Z,46.50
2022-12-09T10:07:13.465Z,48.50
2022-12-09T10:10:05.448Z,43.27
2022-12-09T10:13:17.585Z,44.67
2022-12-09T10:15:53.232Z,48.03
2022-12-09T10:18:23.590Z,47.92
2022-12-09T10:20:50.744Z,46.33
2022-12-09T10:23:18.369Z,44.80
2022-12-09T10:25:50.911Z,37.15
2022-12-09T10:28:33.908Z,42.30
2022-12-09T10:31:00.889Z,36.38
2022-12-09T10:33:30.589Z,40.17
2022-12-09T10:35:58.548Z,38.47
2022-12-09T10:38:28.895Z,42.53
2022-12-09T10:41:07.995Z,38.22
2022-12-09T10:43:44.168Z,40.17
2022-12-09T10:46:19.519Z,38.13
2022-12-09T10:48:47.332Z,46.97
2022-12-09T10:51:15.959Z,41.75
2022-12-09T10:53:58.799Z,36.53
2022-12-09T10:56:34.379Z,38.85
2022-12-09T10:59:22.483Z,39.50
2022-12-09T11:01:57.657Z,39.43
2022-12-09T11:04:36.363Z,38.55
2022-12-09T11:07:03.272Z,39.28
2022-12-09T11:09:33.160Z,33.42
2022-12-09T11:12:01.344Z,36.63
2022-12-09T11:14:35.144Z,35.20
2022-12-09T11:17:24.268Z,38.15
2022-12-09T11:20:08.362Z,35.55
2022-12-09T11:22:40.249Z,33.28
2022-12-09T11:25:28.054Z,36.05
2022-12-09T11:27:58.439Z,33.90
2022-12-09T11:30:32.599Z,34.40
2022-12-09T11:33:06.126Z,35.97
2022-12-09T11:35:45.714Z,34.83
2022-12-09T11:38:31.990Z,35.22
2022-12-09T11:41:36.410Z,37.90
2022-12-09T11:44:14.321Z,37.00
2022-12-09T11:46:41.680Z,35.88
2022-12-09T11:49:17.209Z,35.65
2022-12-09T11:51:59.542Z,34.83
2022-12-09T11:54:32.130Z,39.17
2022-12-09T11:57:00.097Z,46.25
2022-12-09T11:59:37.824Z,41.45
2022-12-09T12:02:22.068Z,38.40
2022-12-09T12:05:21.325Z,37.67
2022-12-09T12:08:21.874Z,34.93
2022-12-09T12:10:59.578Z,37.47
2022-12-09T12:13:48.668Z,36.53
2022-12-09T12:16:34.821Z,31.33
2022-12-09T12:19:33.499Z,34.47
2022-12-09T12:22:22.029Z,33.57
2022-12-09T12:25:00.555Z,35.88
2022-12-09T12:28:09.363Z,30.33
2022-12-09T12:31:01.920Z,29.52
2022-12-09T12:34:22.907Z,30.98
2022-12-09T12:37:27.963Z,30.23
2022-12-09T12:40:03.779Z,31.90
2022-12-09T12:43:11.222Z,32.88
2022-12-09T12:46:09.958Z,32.40
2022-12-09T12:48:53.194Z,32.13
2022-12-09T12:51:52.536Z,32.60
2022-12-09T12:54:43.725Z,32.95
2022-12-09T12:57:19.679Z,30.70
2022-12-09T12:59:57.829Z,31.25
2022-12-09T13:02:24.429Z,32.33
2022-12-09T13:05:23.476Z,35.80
2022-12-09T13:07:59.525Z,34.17
2022-12-09T13:10:35.390Z,36.83
2022-12-09T13:13:04.878Z,37.25
2022-12-09T13:15:41.896Z,40.65
2022-12-09T13:18:28.797Z,37.37
2022-12-09T13:20:57.735Z,40.97
2022-12-09T13:23:59.311Z,38.47
2022-12-09T13:26:44.602Z,39.22
2022-12-09T13:29:54.926Z,38.17
2022-12-09T13:32:39.619Z,36.27
2022-12-09T13:35:21.235Z,40.92
2022-12-09T13:37:50.007Z,41.95
2022-12-09T13:40:30.723Z,41.22
2022-12-09T13:43:03.477Z,43.30
2022-12-09T13:45:45.133Z,44.97
2022-12-09T13:48:16.449Z,47.45
2022-12-09T13:50:59.433Z,44.55
2022-12-09T13:53:46.970Z,48.70
2022-12-09T13:56:16.509Z,44.92
2022-12-09T13:59:01.793Z,44.23
2022-12-09T14:01:49.818Z,45.38
2022-12-09T14:04:16.410Z,46.10
2022-12-09T14:06:46.313Z,49.47
2022-12-09T14:09:43.932Z,47.13
2022-12-09T14:12:12.946Z,46.13
2022-12-09T14:14:45.640Z,47.38
2022-12-09T14:17:26.235Z,49.75
2022-12-09T14:20:00.738Z,45.72
2022-12-09T14:22:35.714Z,45.83
2022-12-09T14:25:37.551Z,48.70
2022-12-09T14:28:09.996Z,49.03
2022-12-09T14:31:04.733Z,48.25
2022-12-09T14:33:34.877Z,50.42
2022-12-09T14:36:08.767Z,45.03
2022-12-09T14:39:23.498Z,49.17
2022-12-09T14:41:59.067Z,45.72
2022-12-09T14:44:32.914Z,48.92
2022-12-09T14:47:26.386Z,46.17
2022-12-09T14:49:54.530Z,44.97
2022-12-09T14:52:32.453Z,49.20
2022-12-09T14:55:02.031Z,50.65
2022-12-09T14:57:38.719Z,50.30
2022-12-09T15:00:07.075Z,51.35
2022-12-09T15:02:34.114Z,55.08
2022-12-09T15:05:03.116Z,51.20
2022-12-09T15:07:34.484Z,52.05
2022-12-09T15:10:08.663Z,62.83
2022-12-09T15:12:39.145Z,69.72
2022-12-09T15:15:10.221Z,110.63
2022-12-09T15:17:43.288Z,91.43
2022-12-09T15:20:40.257Z,91.15
2022-12-09T15:23:16.866Z,110.10
2022-12-09T15:25:48.240Z,115.30
2022-12-09T15:28:21.456Z,106.68
2022-12-09T15:30:56.210Z,88.20
2022-12-09T15:33:23.432Z,88.30
2022-12-09T15:35:57.567Z,87.10
2022-12-09T15:38:26.586Z,108.78
2022-12-09T15:41:14.990Z,78.90
2022-12-09T15:43:42.714Z,88.60
2022-12-09T15:46:10.236Z,69.95
2022-12-09T15:48:41.813Z,83.25
2022-12-09T15:51:13.184Z,78.18
2022-12-09T15:53:55.319Z,86.22
2022-12-09T15:56:30.238Z,72.93
2022-12-09T15:59:04.727Z,64.50
2022-12-09T16:01:34.471Z,57.75
2022-12-09T16:04:02.481Z,47.90
2022-12-09T16:06:32.226Z,55.35
2022-12-09T16:08:59.988Z,62.93
2022-12-09T16:11:37.904Z,59.03
2022-12-09T16:14:05.422Z,64.55
2022-12-09T16:16:50.829Z,60.15
2022-12-09T16:19:36.499Z,61.45
2022-12-09T16:22:15.743Z,54.17
2022-12-09T16:25:15.877Z,55.80
2022-12-09T16:27:48.988Z,74.50
2022-12-09T16:30:24.079Z,46.92
2022-12-09T16:32:54.633Z,52.13
2022-12-09T16:35:36.309Z,53.23
2022-12-09T16:38:11.769Z,54.30
2022-12-09T16:40:44.633Z,57.40
2022-12-09T16:43:17.177Z,56.53
2022-12-09T16:45:49.722Z,54.70
2022-12-09T16:48:17.866Z,48.67
2022-12-09T16:50:52.855Z,54.08
2022-12-09T16:53:22.217Z,49.30
2022-12-09T16:55:54.055Z,48.10
2022-12-09T16:58:21.094Z,51.42
2022-12-09T17:00:48.483Z,53.23
2022-12-09T17:03:22.745Z,54.10
2022-12-09T17:05:49.345Z,48.67
2022-12-09T17:08:15.993Z,54.53
2022-12-09T17:10:42.898Z,52.63
2022-12-09T17:13:12.254Z,49.77
2022-12-09T17:15:42.046Z,53.17
2022-12-09T17:18:09.646Z,60.15
2022-12-09T17:20:37.532Z,62.90
2022-12-09T17:23:04.533Z,67.47
2022-12-09T17:25:33.283Z,67.60
2022-12-09T17:28:05.666Z,71.78
2022-12-09T17:30:36.682Z,64.50
2022-12-09T17:33:03.272Z,65.15
2022-12-09T17:35:29.966Z,66.03
2022-12-09T17:37:56.457Z,59.63
2022-12-09T17:40:23.010Z,61.25
2022-12-09T17:42:49.658Z,59.83
2022-12-09T17:45:16.239Z,56.05
2022-12-09T17:47:42.800Z,57.65
2022-12-09T17:50:10.039Z,59.83
2022-12-09T17:52:36.865Z,64.45
2022-12-09T17:55:03.536Z,58.15
2022-12-09T17:57:30.133Z,58.10
2022-12-09T17:59:56.770Z,56.53
2022-12-09T18:02:23.344Z,63.13
2022-12-09T18:04:49.964Z,58.30
2022-12-09T18:07:16.472Z,62.47
2022-12-09T18:09:43.052Z,56.67
2022-12-09T18:12:09.776Z,59.72
2022-12-09T18:14:36.262Z,58.33
2022-12-09T18:17:02.789Z,74.05
2022-12-09T18:19:30.294Z,61.25
2022-12-09T18:21:58.168Z,55.22
2022-12-09T18:24:24.701Z,64.93
2022-12-09T18:26:52.027Z,61.67
2022-12-09T18:29:18.684Z,56.58
2022-12-09T18:31:54.194Z,59.20
2022-12-09T18:34:22.068Z,55.38
2022-12-09T18:36:48.613Z,55.15
2022-12-09T18:39:16.239Z,68.53
2022-12-09T18:41:45.833Z,54.45
2022-12-09T18:44:14.358Z,56.55
2022-12-09T18:46:45.075Z,57.03
2022-12-09T18:49:17.976Z,56.67
2022-12-09T18:51:46.130Z,52.47
2022-12-09T18:54:32.629Z,58.60
2022-12-09T18:57:01.899Z,57.75
2022-12-09T18:59:28.679Z,61.92
2022-12-09T19:01:55.254Z,62.00
2022-12-09T19:04:27.052Z,62.73
2022-12-09T19:06:56.908Z,58.55
2022-12-09T19:09:26.760Z,60.45
2022-12-09T19:11:53.520Z,58.45
2022-12-09T19:14:21.817Z,59.33
2022-12-09T19:16:49.209Z,61.30
2022-12-09T19:19:17.980Z,59.10
2022-12-09T19:21:45.688Z,62.00
2022-12-09T19:24:20.350Z,60.28
2022-12-09T19:26:47.750Z,59.17
2022-12-09T19:29:14.872Z,58.27
2022-12-09T19:31:47.095Z,63.67
2022-12-09T19:34:16.611Z,66.20
2022-12-09T19:36:44.320Z,62.22
2022-12-09T19:39:12.652Z,68.28
2022-12-09T19:41:41.006Z,62.17
2022-12-09T19:44:08.547Z,66.70
2022-12-09T19:46:35.289Z,68.55
2022-12-09T19:49:02.660Z,62.38
2022-12-09T19:51:29.263Z,62.05
2022-12-09T19:53:58.570Z,62.70
2022-12-09T19:56:25.915Z,73.05
2022-12-09T19:58:53.940Z,68.25
2022-12-09T20:01:23.881Z,76.68
2022-12-09T20:03:56.086Z,73.03
2022-12-09T20:06:23.143Z,79.63
2022-12-09T20:08:49.996Z,87.00
2022-12-09T20:11:22.735Z,89.80
2022-12-09T20:13:49.822Z,85.32
2022-12-09T20:16:19.180Z,87.90
2022-12-09T20:18:48.345Z,101.30
2022-12-09T20:21:17.698Z,92.25
2022-12-09T20:23:44.822Z,95.15
2022-12-09T20:26:32.591Z,82.75
2022-12-09T20:29:03.074Z,79.38
2022-12-09T20:31:31.421Z,79.27
2022-12-09T20:34:00.878Z,75.43
2022-12-09T20:36:30.550Z,72.15
2022-12-09T20:38:59.784Z,69.53
2022-12-09T20:41:27.962Z,76.38
2022-12-09T20:43:57.174Z,70.40
2022-12-09T20:46:29.147Z,71.03
2022-12-09T20:48:56.672Z,74.90
2022-12-09T20:51:32.812Z,68.07
2022-12-09T20:53:59.880Z,64.82
2022-12-09T20:56:28.458Z,70.70
2022-12-09T20:58:56.104Z,74.25
2022-12-09T21:01:25.272Z,71.22
2022-12-09T21:03:53.545Z,66.45
2022-12-09T21:06:22.594Z,70.57
2022-12-09T21:08:49.591Z,72.00
2022-12-09T21:11:20.532Z,72.80
2022-12-09T21:13:49.469Z,72.70
2022-12-09T21:16:22.029Z,76.45
2022-12-09T21:18:50.098Z,72.00
2022-12-09T21:21:18.319Z,70.40
2022-12-09T21:23:45.267Z,73.63
2022-12-09T21:26:14.382Z,73.10
2022-12-09T21:28:41.714Z,71.53
2022-12-09T21:31:18.008Z,69.00
2022-12-09T21:33:46.050Z,67.97
2022-12-09T21:36:15.858Z,74.65
2022-12-09T21:38:43.581Z,76.25
2022-12-09T21:41:16.555Z,67.00
2022-12-09T21:43:43.765Z,74.97
2022-12-09T21:46:13.300Z,70.70
2022-12-09T21:48:40.576Z,72.18
2022-12-09T21:51:07.964Z,74.35
2022-12-09T21:53:34.996Z,77.60
2022-12-09T21:56:06.655Z,66.30
2022-12-09T21:58:35.007Z,72.97
2022-12-09T22:01:15.452Z,74.20
2022-12-09T22:03:42.728Z,74.70
2022-12-09T22:06:10.721Z,74.97
2022-12-09T22:08:38.943Z,74.88
2022-12-09T22:11:19.142Z,76.17
2022-12-09T22:13:46.019Z,76.60
2022-12-09T22:16:18.169Z,70.03
2022-12-09T22:18:45.086Z,73.22
2022-12-09T22:21:30.495Z,69.35
2022-12-09T22:23:59.295Z,67.13
2022-12-09T22:26:26.831Z,67.25
2022-12-09T22:28:54.020Z,74.75
2022-12-09T22:31:26.318Z,72.15
2022-12-09T22:33:54.822Z,72.55
2022-12-09T22:36:22.389Z,71.93
2022-12-09T22:38:49.371Z,74.13
2022-12-09T22:41:19.380Z,72.60
2022-12-09T22:43:46.177Z,70.50
2022-12-09T22:46:15.888Z,70.20
2022-12-09T22:48:42.995Z,67.93
2022-12-09T22:51:15.455Z,76.43
2022-12-09T22:53:42.554Z,69.88
2022-12-09T22:56:11.528Z,75.18
2022-12-09T22:58:38.871Z,66.82
2022-12-09T23:01:28.686Z,75.33
2022-12-09T23:03:56.488Z,70.47
2022-12-09T23:06:23.952Z,74.90
2022-12-09T23:08:50.701Z,72.90
2022-12-09T23:11:20.445Z,67.72
2022-12-09T23:13:47.464Z,74.00
2022-12-09T23:16:22.950Z,75.80
2022-12-09T23:18:51.211Z,78.60
2022-12-09T23:21:21.419Z,76.72
2022-12-09T23:23:48.570Z,81.70
2022-12-09T23:26:17.296Z,79.23
2022-12-09T23:28:47.515Z,77.00
2022-12-09T23:31:16.327Z,77.57
2022-12-09T23:33:45.114Z,76.55
2022-12-09T23:36:17.109Z,72.63
2022-12-09T23:38:44.273Z,77.40
2022-12-09T23:41:12.580Z,74.00
2022-12-09T23:43:39.190Z,66.18
2022-12-09T23:46:15.199Z,78.70
2022-12-09T23:48:43.008Z,71.63
2022-12-09T23:51:15.049Z,83.10
2022-12-09T23:53:43.225Z,77.78
2022-12-09T23:56:18.545Z,76.93
2022-12-09T23:58:45.917Z,76.40
